Jonni Ritscher — A8JT7 — position and weather

sailwx.info

Track history (hours):
 
Tides and Currents Weather Stations Pressure Air Temp Water Temp Dewpoint Dewpoint Depression Visibility Wind Speed Wind Dir Waves Ship Positions

Jonni Ritscher

Last reported at 2017-Aug-16 21:20 UTC. Time now 2017-Aug-16 21:50 UTC.
Position N 54°10' E 005°11'.

Length 179 m; draft 9.5 m.

Type: Ship. MMSI: 636091136.

Date/timePositionNaut miles runAvg speedWind from/ knotsBaromVisibWave heightAir tempDewpointWater temp
2017-Aug-16 21:20N 54°10' E 005°11'720.6
2017-Aug-16 20:59N 54°03' E 005°07'1020.4
2017-Aug-16 20:30N 53°54' E 005°01'1120.2
2017-Aug-16 19:57N 53°44' E 004°54'1819.9
2017-Aug-16 19:04N 53°27' E 004°43'119.7
2017-Aug-16 19:00N 53°27' E 004°42'1919.7
2017-Aug-16 18:04N 53°09' E 004°30'719.7
2017-Aug-16 17:43N 53°03' E 004°25'419.7
2017-Aug-16 17:30N 52°60' E 004°21'1019.8
2017-Aug-16 17:01N 52°51' E 004°14'1019.7
2017-Aug-16 16:30N 52°42' E 004°06'1119.7
2017-Aug-16 15:57N 52°33' E 003°57'919.5
2017-Aug-16 15:30N 52°24' E 003°53'918.9
2017-Aug-16 15:01N 52°15' E 003°52'918.8
2017-Aug-16 14:31N 52°06' E 003°54'4 8.7
2017-Aug-16 14:00N 52°02' E 003°57'815.0
2017-Aug-16 13:30N 51°58' E 004°08'612.0
2017-Aug-16 13:00N 51°55' E 004°15'5 9.8
2017-Aug-16 12:30N 51°54' E 004°23'2 3.7
2017-Aug-16 12:00N 51°53' E 004°26'0 0.0
2017-Aug-16 11:30N 51°53' E 004°26'0 0.0
2017-Aug-16 11:00N 51°53' E 004°26'0 0.0
2017-Aug-16 10:30N 51°53' E 004°26'0 0.0
2017-Aug-16 09:59N 51°53' E 004°26'0 0.0
2017-Aug-16 09:30N 51°53' E 004°26'0 0.0
2017-Aug-16 09:00N 51°53' E 004°26'0 0.0
2017-Aug-16 08:30N 51°53' E 004°26'0 0.0
2017-Aug-16 07:59N 51°53' E 004°26'0 0.0
2017-Aug-16 07:30N 51°53' E 004°26'0 0.0
2017-Aug-16 07:00N 51°53' E 004°26'0 0.0
2017-Aug-16 06:30N 51°53' E 004°26'0 0.0
2017-Aug-16 06:00N 51°53' E 004°26'0 0.0
2017-Aug-16 05:30N 51°53' E 004°26'0 0.0
2017-Aug-16 05:01N 51°53' E 004°26'1 1.3
2017-Aug-16 04:31N 51°54' E 004°26'1 2.7
2017-Aug-16 04:01N 51°53' E 004°24'0 0.8
2017-Aug-16 03:30N 51°53' E 004°24'0 0.0
2017-Aug-16 03:00N 51°53' E 004°24'0 0.0
2017-Aug-16 02:30N 51°53' E 004°24'0 0.0
2017-Aug-16 02:00N 51°53' E 004°24'0 0.0
2017-Aug-16 01:30N 51°53' E 004°24'0 0.0
2017-Aug-16 01:00N 51°53' E 004°24'0 0.0
2017-Aug-16 00:30N 51°53' E 004°24'0 0.0
2017-Aug-16 00:00N 51°53' E 004°24'0 0.0
2017-Aug-15 23:30N 51°53' E 004°24'0 0.0
2017-Aug-15 23:00N 51°53' E 004°24'0 0.0
2017-Aug-15 22:30N 51°53' E 004°24'0 0.0
2017-Aug-15 22:00N 51°53' E 004°24'0 0.0
2017-Aug-15 21:30N 51°53' E 004°24'0 0.0
2017-Aug-15 21:00N 51°53' E 004°24'0 0.0
2017-Aug-15 20:30N 51°53' E 004°24'0 0.0
2017-Aug-15 20:00N 51°53' E 004°24'0 0.0
2017-Aug-15 19:30N 51°53' E 004°24'0 0.0
2017-Aug-15 19:00N 51°53' E 004°24'0 0.0
2017-Aug-15 18:30N 51°53' E 004°24'0 0.0
2017-Aug-15 18:00N 51°53' E 004°24'0 0.0
2017-Aug-15 17:30N 51°53' E 004°24'0 0.0
2017-Aug-15 17:00N 51°53' E 004°24'0 0.0
2017-Aug-15 16:30N 51°53' E 004°24'0 0.0
2017-Aug-15 16:00N 51°53' E 004°24'0 0.0
2017-Aug-15 15:30N 51°53' E 004°24'0 0.0
2017-Aug-15 15:00N 51°53' E 004°24'0 0.0
2017-Aug-15 14:23N 51°53' E 004°24'0 0.0
2017-Aug-15 14:00N 51°53' E 004°24'0 0.0
2017-Aug-15 13:30N 51°53' E 004°24'0 0.0
2017-Aug-15 13:00N 51°53' E 004°24'0 0.0
2017-Aug-15 12:31N 51°53' E 004°24'0 0.0
2017-Aug-15 12:00N 51°53' E 004°24'0 0.9
2017-Aug-15 11:30N 51°53' E 004°24'2 4.7
2017-Aug-15 11:00N 51°54' E 004°21'4 8.7
2017-Aug-15 10:30N 51°55' E 004°14'612.4
2017-Aug-15 10:00N 51°59' E 004°06'2 4.9
2017-Aug-15 09:30N 51°58' E 004°02'2 3.1
2017-Aug-15 09:00N 51°57' E 004°00'0 0.0
2017-Aug-15 08:30N 51°57' E 004°00'0 0.0
2017-Aug-15 08:00N 51°57' E 004°00'0 0.0
2017-Aug-15 07:30N 51°57' E 004°00'0 0.0
2017-Aug-15 07:00N 51°57' E 004°00'0 0.0
2017-Aug-15 06:30N 51°57' E 004°00'0 0.0
2017-Aug-15 06:00N 51°57' E 004°00'0 0.0
2017-Aug-15 05:30N 51°57' E 004°00'0 0.0
2017-Aug-15 05:00N 51°57' E 004°00'0 0.0
2017-Aug-15 04:30N 51°57' E 004°00'0 0.0
2017-Aug-15 04:00N 51°57' E 004°00'0 0.0
2017-Aug-15 03:30N 51°57' E 004°00'0 0.0
2017-Aug-15 03:00N 51°57' E 004°00'0 0.0
2017-Aug-15 02:30N 51°57' E 004°00'0 0.0
2017-Aug-15 02:00N 51°57' E 004°00'0 0.0
2017-Aug-15 01:30N 51°57' E 004°00'0 0.0
2017-Aug-15 01:00N 51°57' E 004°00'0 0.0
2017-Aug-15 00:30N 51°57' E 004°00'0 0.0
2017-Aug-15 00:00N 51°57' E 004°00'0 0.0
2017-Aug-14 23:30N 51°57' E 004°00'0 0.0
2017-Aug-14 23:00N 51°57' E 004°00'0 0.0
2017-Aug-14 22:29N 51°57' E 004°00'0 0.0
2017-Aug-14 22:00N 51°57' E 004°00'0 0.0
2017-Aug-14 21:30N 51°57' E 004°00'0 0.0
2017-Aug-14 21:00N 51°57' E 004°00'0 0.0
2017-Aug-14 20:30N 51°57' E 004°00'0 0.0
2017-Aug-14 20:00N 51°57' E 004°00'0 0.0
2017-Aug-14 19:30N 51°57' E 004°00'0 0.0
2017-Aug-14 19:00N 51°57' E 004°00'0 0.0
2017-Aug-14 18:30N 51°57' E 004°00'0 0.0
2017-Aug-14 18:00N 51°57' E 004°00'0 0.0
2017-Aug-14 17:30N 51°57' E 004°00'0 0.0
2017-Aug-14 17:00N 51°57' E 004°00'0 0.0
2017-Aug-14 16:29N 51°57' E 004°00'0 0.0
2017-Aug-14 16:00N 51°57' E 004°00'0 0.0
2017-Aug-14 15:29N 51°57' E 004°00'0 0.0
2017-Aug-14 15:00N 51°57' E 004°00'0 0.0
2017-Aug-14 14:30N 51°57' E 004°00'0 0.0
2017-Aug-14 14:00N 51°57' E 004°00'0 0.0
2017-Aug-14 13:31N 51°57' E 004°00'0 0.0
2017-Aug-14 13:00N 51°57' E 004°00'0 0.0
2017-Aug-14 12:30N 51°57' E 004°00'0 0.2
2017-Aug-14 12:01N 51°57' E 004°00'0 0.0
2017-Aug-14 11:30N 51°57' E 004°00'0 0.0
2017-Aug-14 11:00N 51°57' E 004°00'0 0.0
2017-Aug-14 10:30N 51°57' E 004°00'0 0.8
2017-Aug-14 10:00N 51°58' E 004°00'2 4.4
2017-Aug-14 09:31N 51°58' E 004°04'0 0.9
2017-Aug-14 09:00N 51°58' E 004°03'0 0.0
2017-Aug-14 08:30N 51°58' E 004°03'0 0.0
2017-Aug-14 08:00N 51°58' E 004°03'0 0.0
2017-Aug-14 07:30N 51°58' E 004°03'0 0.0
2017-Aug-14 07:00N 51°58' E 004°03'0 0.0
2017-Aug-14 06:30N 51°58' E 004°03'0 0.0
2017-Aug-14 06:00N 51°58' E 004°03'0 0.0
2017-Aug-14 05:30N 51°58' E 004°03'0 0.0
2017-Aug-14 05:00N 51°58' E 004°03'0 0.0
2017-Aug-14 04:30N 51°58' E 004°03'0 0.0
2017-Aug-14 04:00N 51°58' E 004°03'0 0.0
2017-Aug-14 03:30N 51°58' E 004°03'0 0.0
2017-Aug-14 03:00N 51°58' E 004°03'0 0.0
2017-Aug-14 02:30N 51°58' E 004°03'0 0.0
2017-Aug-14 02:00N 51°58' E 004°03'0 0.0
2017-Aug-14 01:30N 51°58' E 004°03'0 0.0
2017-Aug-14 00:59N 51°58' E 004°03'0 0.0
2017-Aug-14 00:30N 51°58' E 004°03'0 0.0
2017-Aug-14 00:00N 51°58' E 004°03'0 0.0
2017-Aug-13 23:30N 51°58' E 004°03'0 0.0
2017-Aug-13 23:00N 51°58' E 004°03'0 0.0
2017-Aug-13 22:30N 51°58' E 004°03'0 0.0
2017-Aug-13 22:00N 51°58' E 004°03'0 0.0
2017-Aug-13 21:29N 51°58' E 004°03'0 0.0
2017-Aug-13 21:00N 51°58' E 004°03'0 0.0
2017-Aug-13 20:30N 51°58' E 004°03'0 0.0
2017-Aug-13 20:00N 51°58' E 004°03'0 0.0
2017-Aug-13 19:30N 51°58' E 004°03'0 0.0
2017-Aug-13 19:00N 51°58' E 004°03'0 0.0
2017-Aug-13 18:30N 51°58' E 004°03'0 0.0
2017-Aug-13 18:00N 51°58' E 004°03'0 0.0
2017-Aug-13 17:29N 51°58' E 004°03'0 0.0
2017-Aug-13 17:00N 51°58' E 004°03'0 0.0
2017-Aug-13 16:30N 51°58' E 004°03'0 0.0
2017-Aug-13 16:00N 51°58' E 004°03'0 0.0
2017-Aug-13 15:30N 51°58' E 004°03'0 0.1
2017-Aug-13 15:00N 51°57' E 004°03'0 0.1
2017-Aug-13 14:30N 51°58' E 004°03'0 0.0
2017-Aug-13 14:00N 51°58' E 004°03'0 0.0
2017-Aug-13 13:30N 51°58' E 004°03'0 0.0
2017-Aug-13 13:00N 51°58' E 004°03'0 0.2
2017-Aug-13 12:30N 51°58' E 004°03'1 1.5
2017-Aug-13 12:00N 51°58' E 004°04'5 9.5
2017-Aug-13 11:30N 52°00' E 003°58'713.6
2017-Aug-13 11:00N 52°01' E 003°47'3 5.1
2017-Aug-13 10:30N 52°03' E 003°46'3 5.3
2017-Aug-13 10:00N 52°06' E 003°46'3 5.9
2017-Aug-13 09:30N 52°09' E 003°46'3 5.5
2017-Aug-13 09:00N 52°12' E 003°45'610.7
2017-Aug-13 08:26N 52°18' E 003°47'510.3
2017-Aug-13 08:00N 52°22' E 003°49'5 9.9
2017-Aug-13 07:30N 52°27' E 003°50'4 7.1
2017-Aug-13 06:56N 52°31' E 003°52'6 6.4
2017-Aug-13 05:58N 52°37' E 003°53'3212.8
2017-Aug-13 03:26N 53°06' E 004°17'614.5
2017-Aug-13 02:59N 53°11' E 004°24'13913.7
2017-Aug-12 16:47N 55°15' E 006°11'413.7
2017-Aug-12 16:29N 55°19' E 006°15'613.6
2017-Aug-12 16:00N 55°25' E 006°21'713.5
2017-Aug-12 15:29N 55°31' E 006°27'613.3
2017-Aug-12 15:00N 55°36' E 006°32'12712.1
2017-Aug-12 04:33N 57°19' E 008°47'113.2
2017-Aug-12 04:27N 57°20' E 008°49'812.9
2017-Aug-12 03:49N 57°24' E 009°02'413.0
2017-Aug-12 03:29N 57°27' E 009°08'713.0
2017-Aug-12 02:57N 57°31' E 009°19'612.1
2017-Aug-12 02:29N 57°34' E 009°28'712.1
2017-Aug-12 01:57N 57°37' E 009°38'612.0
2017-Aug-12 01:28N 57°40' E 009°47'712.2
2017-Aug-12 00:56N 57°44' E 009°58'512.6
2017-Aug-12 00:30N 57°47' E 010°06'612.5
2017-Aug-12 00:00N 57°50' E 010°16'713.1
2017-Aug-11 23:30N 57°50' E 010°28'613.1
2017-Aug-11 23:01N 57°50' E 010°40'712.6
2017-Aug-11 22:29N 57°46' E 010°50'613.0
2017-Aug-11 22:00N 57°42' E 010°59'612.7
2017-Aug-11 21:30N 57°37' E 011°08'713.1
2017-Aug-11 20:58N 57°33' E 011°18'713.0
2017-Aug-11 20:28N 57°28' E 011°26'613.7
2017-Aug-11 20:00N 57°22' E 011°30'713.6
2017-Aug-11 19:30N 57°16' E 011°34'713.3
2017-Aug-11 19:00N 57°09' E 011°38'613.1
2017-Aug-11 18:30N 57°03' E 011°42'912.9
2017-Aug-11 17:47N 56°54' E 011°48'512.9
2017-Aug-11 17:24N 56°50' E 011°51'612.4
2017-Aug-11 16:53N 56°43' E 011°52'513.5
2017-Aug-11 16:29N 56°39' E 011°47'813.0
2017-Aug-11 15:52N 56°32' E 011°40'1712.9
2017-Aug-11 14:34N 56°17' E 011°25'813.0
2017-Aug-11 13:58N 56°11' E 011°17'712.8
2017-Aug-11 13:25N 56°05' E 011°08'512.9
2017-Aug-11 12:59N 56°00' E 011°05'613.0
2017-Aug-11 12:30N 55°55' E 010°58'815.5
2017-Aug-11 12:00N 55°49' E 010°49'612.4
2017-Aug-11 11:29N 55°43' E 010°48'510.3
2017-Aug-11 11:01N 55°38' E 010°48'713.1
2017-Aug-11 10:30N 55°32' E 010°52'712.8
2017-Aug-11 09:59N 55°26' E 010°58'712.4
2017-Aug-11 09:26N 55°20' E 011°03'613.1
2017-Aug-11 09:01N 55°15' E 011°06'611.8
2017-Aug-11 08:31N 55°10' E 011°00'713.1
2017-Aug-11 08:01N 55°03' E 010°60'612.9
2017-Aug-11 07:31N 54°57' E 010°55'713.1
2017-Aug-11 07:01N 54°51' E 010°50'713.1
2017-Aug-11 06:31N 54°45' E 010°47'611.1
2017-Aug-11 06:01N 54°40' E 010°50'713.1
2017-Aug-11 05:30N 54°36' E 010°60'612.9
2017-Aug-11 05:01N 54°36' E 011°11'713.2
2017-Aug-11 04:31N 54°33' E 011°21'612.9
2017-Aug-11 04:01N 54°30' E 011°31'712.7
2017-Aug-11 03:30N 54°28' E 011°41'612.8
2017-Aug-11 03:01N 54°26' E 011°52'713.1
2017-Aug-11 02:30N 54°26' E 012°03'13 9.8
2017-Aug-11 01:09N 54°36' E 012°18'213.6
2017-Aug-11 01:00N 54°38' E 012°21'713.4
2017-Aug-11 00:30N 54°41' E 012°31'713.2
2017-Aug-11 00:00N 54°45' E 012°40'712.9
2017-Aug-10 23:27N 54°49' E 012°50'1112.8
2017-Aug-10 22:38N 54°52' E 013°08'212.9
2017-Aug-10 22:30N 54°53' E 013°10'612.8
2017-Aug-10 22:00N 54°55' E 013°21'612.7
2017-Aug-10 21:30N 54°57' E 013°31'612.8
2017-Aug-10 21:00N 54°59' E 013°42'713.4
2017-Aug-10 20:30N 55°02' E 013°53'713.6
2017-Aug-10 20:01N 55°04' E 014°04'713.4
2017-Aug-10 19:31N 55°09' E 014°11'713.4
2017-Aug-10 19:01N 55°15' E 014°18'713.7
2017-Aug-10 18:31N 55°20' E 014°26'713.9
2017-Aug-10 18:01N 55°25' E 014°34'713.7
2017-Aug-10 17:31N 55°29' E 014°43'713.8
2017-Aug-10 17:01N 55°33' E 014°54'713.6
2017-Aug-10 16:31N 55°36' E 015°04'713.5
2017-Aug-10 16:01N 55°40' E 015°15'713.4
2017-Aug-10 15:31N 55°43' E 015°25'713.1
2017-Aug-10 15:00N 55°46' E 015°35'5 9.7
2017-Aug-10 14:30N 55°49' E 015°43'713.2
2017-Aug-10 14:00N 55°52' E 015°53'713.1
2017-Aug-10 13:30N 55°55' E 016°03'713.2
2017-Aug-10 13:00N 55°59' E 016°13'713.2
2017-Aug-10 12:30N 56°02' E 016°23'713.2
2017-Aug-10 12:00N 56°05' E 016°33'713.4
2017-Aug-10 11:30N 56°09' E 016°43'14314.1
2017-Aug-10 01:24N 57°50' E 019°50'613.9
2017-Aug-10 01:00N 57°54' E 019°55'2913.6
2017-Aug-09 22:50N 58°18' E 020°28'813.5
2017-Aug-09 22:13N 58°25' E 020°37'313.5
2017-Aug-09 21:58N 58°28' E 020°41'913.6
2017-Aug-09 21:18N 58°35' E 020°51'413.7
2017-Aug-09 21:00N 58°39' E 020°55'714.4
2017-Aug-09 20:30N 58°44' E 021°03'713.1
2017-Aug-09 20:00N 58°50' E 021°10'713.8
2017-Aug-09 19:30N 58°56' E 021°17'713.9
2017-Aug-09 19:00N 59°01' E 021°25'714.0
2017-Aug-09 18:30N 59°07' E 021°34'714.3
2017-Aug-09 18:00N 59°11' E 021°44'714.4
2017-Aug-09 17:31N 59°16' E 021°55'714.4
2017-Aug-09 17:01N 59°21' E 022°06'714.4
2017-Aug-09 16:31N 59°25' E 022°16'714.3
2017-Aug-09 16:00N 59°30' E 022°27'713.6
2017-Aug-09 15:31N 59°32' E 022°40'713.9
2017-Aug-09 15:01N 59°34' E 022°53'714.6
2017-Aug-09 14:30N 59°37' E 023°07'714.8
2017-Aug-09 14:01N 59°39' E 023°21'714.7
2017-Aug-09 13:30N 59°41' E 023°35'4 7.4
2017-Aug-09 13:00N 59°42' E 023°42'713.0
2017-Aug-09 12:30N 59°43' E 023°54'713.6
2017-Aug-09 12:00N 59°45' E 024°07'713.7
2017-Aug-09 11:31N 59°47' E 024°20'713.1
2017-Aug-09 11:00N 59°48' E 024°33'713.7
2017-Aug-09 10:31N 59°49' E 024°46'713.2
2017-Aug-09 10:00N 59°51' E 024°59'713.7
2017-Aug-09 09:30N 59°52' E 025°13'713.6
2017-Aug-09 09:00N 59°54' E 025°26'713.4
2017-Aug-09 08:31N 59°55' E 025°39'713.8
2017-Aug-09 08:01N 59°56' E 025°53'4 8.0
2017-Aug-09 07:30N 59°57' E 026°01'4 9.0
2017-Aug-09 07:01N 59°58' E 026°09'612.7
2017-Aug-09 06:31N 59°60' E 026°22'612.8
2017-Aug-09 06:00N 60°01' E 026°34'612.6
2017-Aug-09 05:30N 60°01' E 026°47'612.9
2017-Aug-09 05:00N 59°60' E 026°59'612.4
2017-Aug-09 04:31N 60°02' E 027°11'612.6
2017-Aug-09 04:00N 60°05' E 027°22'613.0
2017-Aug-09 03:30N 60°08' E 027°33'612.8
2017-Aug-09 03:01N 60°12' E 027°44'612.4
2017-Aug-09 02:30N 60°11' E 027°56'612.9
2017-Aug-09 02:01N 60°09' E 028°09'612.3
2017-Aug-09 01:30N 60°07' E 028°20'612.4
2017-Aug-09 01:01N 60°03' E 028°31'612.4
2017-Aug-09 00:30N 60°03' E 028°43'612.3
2017-Aug-09 00:01N 60°03' E 028°56'612.7
2017-Aug-08 23:30N 60°02' E 029°08'612.9
2017-Aug-08 23:00N 60°02' E 029°21'5 9.8
2017-Aug-08 22:31N 60°01' E 029°31'611.2
2017-Aug-08 22:00N 59°60' E 029°42'5 9.9
2017-Aug-08 21:30N 59°57' E 029°50'510.4
2017-Aug-08 21:01N 59°55' E 029°60'4 8.7
2017-Aug-08 20:30N 59°54' E 030°08'2 4.2
2017-Aug-08 20:01N 59°53' E 030°12'0 0.2
2017-Aug-08 19:30N 59°53' E 030°12'0 0.0
2017-Aug-08 19:00N 59°53' E 030°12'0 0.2
2017-Aug-08 18:30N 59°53' E 030°12'0 0.2
2017-Aug-08 18:00N 59°53' E 030°12'0 0.0
2017-Aug-08 17:30N 59°53' E 030°12'0 0.2
2017-Aug-08 16:59N 59°53' E 030°12'0 0.2
2017-Aug-08 16:29N 59°53' E 030°12'0 0.0
2017-Aug-08 15:59N 59°53' E 030°12'0 0.0
2017-Aug-08 15:29N 59°53' E 030°12'0 0.0
2017-Aug-08 14:58N 59°53' E 030°12'0 0.0
2017-Aug-08 14:28N 59°53' E 030°12'0 0.0
2017-Aug-08 13:58N 59°53' E 030°12'0 0.2
2017-Aug-08 13:28N 59°53' E 030°12'0 0.0
2017-Aug-08 12:58N 59°53' E 030°12'0 0.2
2017-Aug-08 12:30N 59°53' E 030°12'0 0.0
2017-Aug-08 12:00N 59°53' E 030°12'0 0.0
2017-Aug-08 11:30N 59°53' E 030°12'0 0.1
2017-Aug-08 10:57N 59°53' E 030°12'0 0.0
2017-Aug-08 10:29N 59°53' E 030°12'0 0.2
2017-Aug-08 09:59N 59°53' E 030°12'0 0.0
2017-Aug-08 09:29N 59°53' E 030°12'0 0.0
2017-Aug-08 08:59N 59°53' E 030°12'0 0.2
2017-Aug-08 08:29N 59°53' E 030°12'0 0.1
2017-Aug-08 07:52N 59°53' E 030°12'0 0.2
2017-Aug-08 07:28N 59°53' E 030°12'0 0.1
2017-Aug-08 06:55N 59°53' E 030°12'0 0.2
2017-Aug-08 06:28N 59°53' E 030°12'0 0.2
2017-Aug-08 05:58N 59°53' E 030°12'0 0.2
2017-Aug-08 05:29N 59°53' E 030°12'0 0.1
2017-Aug-08 04:54N 59°53' E 030°12'0 0.0
2017-Aug-08 04:30N 59°53' E 030°12'0 0.0
2017-Aug-08 04:00N 59°53' E 030°12'0 0.0
2017-Aug-08 03:29N 59°53' E 030°12'0 0.0
2017-Aug-08 02:59N 59°53' E 030°12'0 0.0
2017-Aug-08 02:29N 59°53' E 030°12'0 0.0
2017-Aug-08 01:59N 59°53' E 030°12'0 0.0
2017-Aug-08 01:29N 59°53' E 030°12'0 0.0
2017-Aug-08 00:58N 59°53' E 030°12'0 0.0
2017-Aug-08 00:28N 59°53' E 030°12'0 0.0
2017-Aug-07 23:58N 59°53' E 030°12'0 0.0
2017-Aug-07 23:28N 59°53' E 030°12'0 0.0
2017-Aug-07 22:58N 59°53' E 030°12'0 0.0
2017-Aug-07 22:30N 59°53' E 030°12'0 0.0
2017-Aug-07 22:00N 59°53' E 030°12'0 0.0
2017-Aug-07 21:27N 59°53' E 030°12'0 0.0
2017-Aug-07 21:00N 59°53' E 030°12'0 0.0
2017-Aug-07 20:26N 59°53' E 030°12'0 0.0
2017-Aug-07 19:59N 59°53' E 030°12'0 0.0
2017-Aug-07 19:29N 59°53' E 030°12'0 0.0
2017-Aug-07 18:59N 59°53' E 030°12'0 0.0
2017-Aug-07 18:29N 59°53' E 030°12'0 0.0
2017-Aug-07 17:58N 59°53' E 030°12'0 0.0
2017-Aug-07 17:28N 59°53' E 030°12'0 0.0
2017-Aug-07 16:58N 59°53' E 030°12'0 0.0
2017-Aug-07 16:28N 59°53' E 030°12'0 0.0
2017-Aug-07 16:01N 59°53' E 030°12'0 0.0
2017-Aug-07 15:27N 59°53' E 030°12'0 0.0
2017-Aug-07 15:00N 59°53' E 030°12'0 0.0
2017-Aug-07 14:30N 59°53' E 030°12'0 0.0
2017-Aug-07 14:00N 59°53' E 030°12'0 0.0
2017-Aug-07 13:29N 59°53' E 030°12'0 0.0
2017-Aug-07 12:59N 59°53' E 030°12'0 0.1
2017-Aug-07 12:26N 59°53' E 030°12'0 0.2
2017-Aug-07 11:59N 59°53' E 030°12'0 0.0
2017-Aug-07 11:29N 59°53' E 030°12'0 0.1
2017-Aug-07 11:00N 59°53' E 030°12'0 0.9
2017-Aug-07 10:30N 59°53' E 030°11'1 2.5
2017-Aug-07 10:00N 59°54' E 030°13'0 0.1
2017-Aug-07 09:28N 59°54' E 030°14'0 0.0
2017-Aug-07 08:58N 59°54' E 030°14'0 0.1
2017-Aug-07 08:25N 59°54' E 030°14'0 0.2
2017-Aug-07 07:58N 59°54' E 030°14'0 0.2
2017-Aug-07 07:30N 59°54' E 030°14'0 0.2
2017-Aug-07 07:00N 59°54' E 030°14'0 0.0
2017-Aug-07 06:30N 59°54' E 030°14'0 0.0
2017-Aug-07 05:57N 59°54' E 030°14'0 0.0
2017-Aug-07 05:30N 59°54' E 030°14'0 0.0
2017-Aug-07 04:56N 59°54' E 030°14'0 0.2
2017-Aug-07 04:29N 59°54' E 030°14'0 0.2
2017-Aug-07 03:59N 59°54' E 030°14'0 0.0
2017-Aug-07 03:29N 59°54' E 030°14'0 0.0
2017-Aug-07 02:59N 59°54' E 030°14'0 0.0
2017-Aug-07 02:25N 59°54' E 030°14'0 0.0
2017-Aug-07 01:55N 59°54' E 030°14'0 0.0
2017-Aug-07 01:28N 59°54' E 030°14'0 0.0
2017-Aug-07 00:58N 59°54' E 030°14'0 0.0
2017-Aug-07 00:27N 59°54' E 030°14'0 0.2
2017-Aug-07 00:00N 59°54' E 030°14'0 0.2
2017-Aug-06 23:30N 59°54' E 030°14'0 0.0
2017-Aug-06 23:00N 59°54' E 030°14'0 0.2
2017-Aug-06 22:30N 59°54' E 030°14'0 0.1
2017-Aug-06 21:59N 59°54' E 030°14'0 0.0
2017-Aug-06 21:29N 59°54' E 030°14'  
Track history (hours):
 
Tides and Currents Weather Stations Pressure Air Temp Water Temp Dewpoint Dewpoint Depression Visibility Wind Speed Wind Dir Waves Ship Positions

Jonni Ritscher

Last reported at 2017-Aug-16 21:20 UTC. Time now 2017-Aug-16 21:50 UTC.
Position N 54°10' E 005°11'.

Length 179 m; draft 9.5 m.

Type: Ship. MMSI: 636091136.

Date/timePositionNaut miles runAvg speedWind from/ knotsBaromVisibWave heightAir tempDewpointWater temp
2017-Aug-16 21:20N 54°10' E 005°11'720.6
2017-Aug-16 20:59N 54°03' E 005°07'1020.4
2017-Aug-16 20:30N 53°54' E 005°01'1120.2
2017-Aug-16 19:57N 53°44' E 004°54'1819.9
2017-Aug-16 19:04N 53°27' E 004°43'119.7
2017-Aug-16 19:00N 53°27' E 004°42'1919.7
2017-Aug-16 18:04N 53°09' E 004°30'719.7
2017-Aug-16 17:43N 53°03' E 004°25'419.7
2017-Aug-16 17:30N 52°60' E 004°21'1019.8
2017-Aug-16 17:01N 52°51' E 004°14'1019.7
2017-Aug-16 16:30N 52°42' E 004°06'1119.7
2017-Aug-16 15:57N 52°33' E 003°57'919.5
2017-Aug-16 15:30N 52°24' E 003°53'918.9
2017-Aug-16 15:01N 52°15' E 003°52'918.8
2017-Aug-16 14:31N 52°06' E 003°54'4 8.7
2017-Aug-16 14:00N 52°02' E 003°57'815.0
2017-Aug-16 13:30N 51°58' E 004°08'612.0
2017-Aug-16 13:00N 51°55' E 004°15'5 9.8
2017-Aug-16 12:30N 51°54' E 004°23'2 3.7
2017-Aug-16 12:00N 51°53' E 004°26'0 0.0
2017-Aug-16 11:30N 51°53' E 004°26'0 0.0
2017-Aug-16 11:00N 51°53' E 004°26'0 0.0
2017-Aug-16 10:30N 51°53' E 004°26'0 0.0
2017-Aug-16 09:59N 51°53' E 004°26'0 0.0
2017-Aug-16 09:30N 51°53' E 004°26'0 0.0
2017-Aug-16 09:00N 51°53' E 004°26'0 0.0
2017-Aug-16 08:30N 51°53' E 004°26'0 0.0
2017-Aug-16 07:59N 51°53' E 004°26'0 0.0
2017-Aug-16 07:30N 51°53' E 004°26'0 0.0
2017-Aug-16 07:00N 51°53' E 004°26'0 0.0
2017-Aug-16 06:30N 51°53' E 004°26'0 0.0
2017-Aug-16 06:00N 51°53' E 004°26'0 0.0
2017-Aug-16 05:30N 51°53' E 004°26'0 0.0
2017-Aug-16 05:01N 51°53' E 004°26'1 1.3
2017-Aug-16 04:31N 51°54' E 004°26'1 2.7
2017-Aug-16 04:01N 51°53' E 004°24'0 0.8
2017-Aug-16 03:30N 51°53' E 004°24'0 0.0
2017-Aug-16 03:00N 51°53' E 004°24'0 0.0
2017-Aug-16 02:30N 51°53' E 004°24'0 0.0
2017-Aug-16 02:00N 51°53' E 004°24'0 0.0
2017-Aug-16 01:30N 51°53' E 004°24'0 0.0
2017-Aug-16 01:00N 51°53' E 004°24'0 0.0
2017-Aug-16 00:30N 51°53' E 004°24'0 0.0
2017-Aug-16 00:00N 51°53' E 004°24'0 0.0
2017-Aug-15 23:30N 51°53' E 004°24'0 0.0
2017-Aug-15 23:00N 51°53' E 004°24'0 0.0
2017-Aug-15 22:30N 51°53' E 004°24'0 0.0
2017-Aug-15 22:00N 51°53' E 004°24'0 0.0
2017-Aug-15 21:30N 51°53' E 004°24'0 0.0
2017-Aug-15 21:00N 51°53' E 004°24'0 0.0
2017-Aug-15 20:30N 51°53' E 004°24'0 0.0
2017-Aug-15 20:00N 51°53' E 004°24'0 0.0
2017-Aug-15 19:30N 51°53' E 004°24'0 0.0
2017-Aug-15 19:00N 51°53' E 004°24'0 0.0
2017-Aug-15 18:30N 51°53' E 004°24'0 0.0
2017-Aug-15 18:00N 51°53' E 004°24'0 0.0
2017-Aug-15 17:30N 51°53' E 004°24'0 0.0
2017-Aug-15 17:00N 51°53' E 004°24'0 0.0
2017-Aug-15 16:30N 51°53' E 004°24'0 0.0
2017-Aug-15 16:00N 51°53' E 004°24'0 0.0
2017-Aug-15 15:30N 51°53' E 004°24'0 0.0
2017-Aug-15 15:00N 51°53' E 004°24'0 0.0
2017-Aug-15 14:23N 51°53' E 004°24'0 0.0
2017-Aug-15 14:00N 51°53' E 004°24'0 0.0
2017-Aug-15 13:30N 51°53' E 004°24'0 0.0
2017-Aug-15 13:00N 51°53' E 004°24'0 0.0
2017-Aug-15 12:31N 51°53' E 004°24'0 0.0
2017-Aug-15 12:00N 51°53' E 004°24'0 0.9
2017-Aug-15 11:30N 51°53' E 004°24'2 4.7
2017-Aug-15 11:00N 51°54' E 004°21'4 8.7
2017-Aug-15 10:30N 51°55' E 004°14'612.4
2017-Aug-15 10:00N 51°59' E 004°06'2 4.9
2017-Aug-15 09:30N 51°58' E 004°02'2 3.1
2017-Aug-15 09:00N 51°57' E 004°00'0 0.0
2017-Aug-15 08:30N 51°57' E 004°00'0 0.0
2017-Aug-15 08:00N 51°57' E 004°00'0 0.0
2017-Aug-15 07:30N 51°57' E 004°00'0 0.0
2017-Aug-15 07:00N 51°57' E 004°00'0 0.0
2017-Aug-15 06:30N 51°57' E 004°00'0 0.0
2017-Aug-15 06:00N 51°57' E 004°00'0 0.0
2017-Aug-15 05:30N 51°57' E 004°00'0 0.0
2017-Aug-15 05:00N 51°57' E 004°00'0 0.0
2017-Aug-15 04:30N 51°57' E 004°00'0 0.0
2017-Aug-15 04:00N 51°57' E 004°00'0 0.0
2017-Aug-15 03:30N 51°57' E 004°00'0 0.0
2017-Aug-15 03:00N 51°57' E 004°00'0 0.0
2017-Aug-15 02:30N 51°57' E 004°00'0 0.0
2017-Aug-15 02:00N 51°57' E 004°00'0 0.0
2017-Aug-15 01:30N 51°57' E 004°00'0 0.0
2017-Aug-15 01:00N 51°57' E 004°00'0 0.0
2017-Aug-15 00:30N 51°57' E 004°00'0 0.0
2017-Aug-15 00:00N 51°57' E 004°00'0 0.0
2017-Aug-14 23:30N 51°57' E 004°00'0 0.0
2017-Aug-14 23:00N 51°57' E 004°00'0 0.0
2017-Aug-14 22:29N 51°57' E 004°00'0 0.0
2017-Aug-14 22:00N 51°57' E 004°00'0 0.0
2017-Aug-14 21:30N 51°57' E 004°00'0 0.0
2017-Aug-14 21:00N 51°57' E 004°00'0 0.0
2017-Aug-14 20:30N 51°57' E 004°00'0 0.0
2017-Aug-14 20:00N 51°57' E 004°00'0 0.0
2017-Aug-14 19:30N 51°57' E 004°00'0 0.0
2017-Aug-14 19:00N 51°57' E 004°00'0 0.0
2017-Aug-14 18:30N 51°57' E 004°00'0 0.0
2017-Aug-14 18:00N 51°57' E 004°00'0 0.0
2017-Aug-14 17:30N 51°57' E 004°00'0 0.0
2017-Aug-14 17:00N 51°57' E 004°00'0 0.0
2017-Aug-14 16:29N 51°57' E 004°00'0 0.0
2017-Aug-14 16:00N 51°57' E 004°00'0 0.0
2017-Aug-14 15:29N 51°57' E 004°00'0 0.0
2017-Aug-14 15:00N 51°57' E 004°00'0 0.0
2017-Aug-14 14:30N 51°57' E 004°00'0 0.0
2017-Aug-14 14:00N 51°57' E 004°00'0 0.0
2017-Aug-14 13:31N 51°57' E 004°00'0 0.0
2017-Aug-14 13:00N 51°57' E 004°00'0 0.0
2017-Aug-14 12:30N 51°57' E 004°00'0 0.2
2017-Aug-14 12:01N 51°57' E 004°00'0 0.0
2017-Aug-14 11:30N 51°57' E 004°00'0 0.0
2017-Aug-14 11:00N 51°57' E 004°00'0 0.0
2017-Aug-14 10:30N 51°57' E 004°00'0 0.8
2017-Aug-14 10:00N 51°58' E 004°00'2 4.4
2017-Aug-14 09:31N 51°58' E 004°04'0 0.9
2017-Aug-14 09:00N 51°58' E 004°03'0 0.0
2017-Aug-14 08:30N 51°58' E 004°03'0 0.0
2017-Aug-14 08:00N 51°58' E 004°03'0 0.0
2017-Aug-14 07:30N 51°58' E 004°03'0 0.0
2017-Aug-14 07:00N 51°58' E 004°03'0 0.0
2017-Aug-14 06:30N 51°58' E 004°03'0 0.0
2017-Aug-14 06:00N 51°58' E 004°03'0 0.0
2017-Aug-14 05:30N 51°58' E 004°03'0 0.0
2017-Aug-14 05:00N 51°58' E 004°03'0 0.0
2017-Aug-14 04:30N 51°58' E 004°03'0 0.0
2017-Aug-14 04:00N 51°58' E 004°03'0 0.0
2017-Aug-14 03:30N 51°58' E 004°03'0 0.0
2017-Aug-14 03:00N 51°58' E 004°03'0 0.0
2017-Aug-14 02:30N 51°58' E 004°03'0 0.0
2017-Aug-14 02:00N 51°58' E 004°03'0 0.0
2017-Aug-14 01:30N 51°58' E 004°03'0 0.0
2017-Aug-14 00:59N 51°58' E 004°03'0 0.0
2017-Aug-14 00:30N 51°58' E 004°03'0 0.0
2017-Aug-14 00:00N 51°58' E 004°03'0 0.0
2017-Aug-13 23:30N 51°58' E 004°03'0 0.0
2017-Aug-13 23:00N 51°58' E 004°03'0 0.0
2017-Aug-13 22:30N 51°58' E 004°03'0 0.0
2017-Aug-13 22:00N 51°58' E 004°03'0 0.0
2017-Aug-13 21:29N 51°58' E 004°03'0 0.0
2017-Aug-13 21:00N 51°58' E 004°03'0 0.0
2017-Aug-13 20:30N 51°58' E 004°03'0 0.0
2017-Aug-13 20:00N 51°58' E 004°03'0 0.0
2017-Aug-13 19:30N 51°58' E 004°03'0 0.0
2017-Aug-13 19:00N 51°58' E 004°03'0 0.0
2017-Aug-13 18:30N 51°58' E 004°03'0 0.0
2017-Aug-13 18:00N 51°58' E 004°03'0 0.0
2017-Aug-13 17:29N 51°58' E 004°03'0 0.0
2017-Aug-13 17:00N 51°58' E 004°03'0 0.0
2017-Aug-13 16:30N 51°58' E 004°03'0 0.0
2017-Aug-13 16:00N 51°58' E 004°03'0 0.0
2017-Aug-13 15:30N 51°58' E 004°03'0 0.1
2017-Aug-13 15:00N 51°57' E 004°03'0 0.1
2017-Aug-13 14:30N 51°58' E 004°03'0 0.0
2017-Aug-13 14:00N 51°58' E 004°03'0 0.0
2017-Aug-13 13:30N 51°58' E 004°03'0 0.0
2017-Aug-13 13:00N 51°58' E 004°03'0 0.2
2017-Aug-13 12:30N 51°58' E 004°03'1 1.5
2017-Aug-13 12:00N 51°58' E 004°04'5 9.5
2017-Aug-13 11:30N 52°00' E 003°58'713.6
2017-Aug-13 11:00N 52°01' E 003°47'3 5.1
2017-Aug-13 10:30N 52°03' E 003°46'3 5.3
2017-Aug-13 10:00N 52°06' E 003°46'3 5.9
2017-Aug-13 09:30N 52°09' E 003°46'3 5.5
2017-Aug-13 09:00N 52°12' E 003°45'610.7
2017-Aug-13 08:26N 52°18' E 003°47'510.3
2017-Aug-13 08:00N 52°22' E 003°49'5 9.9
2017-Aug-13 07:30N 52°27' E 003°50'4 7.1
2017-Aug-13 06:56N 52°31' E 003°52'6 6.4
2017-Aug-13 05:58N 52°37' E 003°53'3212.8
2017-Aug-13 03:26N 53°06' E 004°17'614.5
2017-Aug-13 02:59N 53°11' E 004°24'13913.7
2017-Aug-12 16:47N 55°15' E 006°11'413.7
2017-Aug-12 16:29N 55°19' E 006°15'613.6
2017-Aug-12 16:00N 55°25' E 006°21'713.5
2017-Aug-12 15:29N 55°31' E 006°27'613.3
2017-Aug-12 15:00N 55°36' E 006°32'12712.1
2017-Aug-12 04:33N 57°19' E 008°47'113.2
2017-Aug-12 04:27N 57°20' E 008°49'812.9
2017-Aug-12 03:49N 57°24' E 009°02'413.0
2017-Aug-12 03:29N 57°27' E 009°08'713.0
2017-Aug-12 02:57N 57°31' E 009°19'612.1
2017-Aug-12 02:29N 57°34' E 009°28'712.1
2017-Aug-12 01:57N 57°37' E 009°38'612.0
2017-Aug-12 01:28N 57°40' E 009°47'712.2
2017-Aug-12 00:56N 57°44' E 009°58'512.6
2017-Aug-12 00:30N 57°47' E 010°06'612.5
2017-Aug-12 00:00N 57°50' E 010°16'713.1
2017-Aug-11 23:30N 57°50' E 010°28'613.1
2017-Aug-11 23:01N 57°50' E 010°40'712.6
2017-Aug-11 22:29N 57°46' E 010°50'613.0
2017-Aug-11 22:00N 57°42' E 010°59'612.7
2017-Aug-11 21:30N 57°37' E 011°08'713.1
2017-Aug-11 20:58N 57°33' E 011°18'713.0
2017-Aug-11 20:28N 57°28' E 011°26'613.7
2017-Aug-11 20:00N 57°22' E 011°30'713.6
2017-Aug-11 19:30N 57°16' E 011°34'713.3
2017-Aug-11 19:00N 57°09' E 011°38'613.1
2017-Aug-11 18:30N 57°03' E 011°42'912.9
2017-Aug-11 17:47N 56°54' E 011°48'512.9
2017-Aug-11 17:24N 56°50' E 011°51'612.4
2017-Aug-11 16:53N 56°43' E 011°52'513.5
2017-Aug-11 16:29N 56°39' E 011°47'813.0
2017-Aug-11 15:52N 56°32' E 011°40'1712.9
2017-Aug-11 14:34N 56°17' E 011°25'813.0
2017-Aug-11 13:58N 56°11' E 011°17'712.8
2017-Aug-11 13:25N 56°05' E 011°08'512.9
2017-Aug-11 12:59N 56°00' E 011°05'613.0
2017-Aug-11 12:30N 55°55' E 010°58'815.5
2017-Aug-11 12:00N 55°49' E 010°49'612.4
2017-Aug-11 11:29N 55°43' E 010°48'510.3
2017-Aug-11 11:01N 55°38' E 010°48'713.1
2017-Aug-11 10:30N 55°32' E 010°52'712.8
2017-Aug-11 09:59N 55°26' E 010°58'712.4
2017-Aug-11 09:26N 55°20' E 011°03'613.1
2017-Aug-11 09:01N 55°15' E 011°06'611.8
2017-Aug-11 08:31N 55°10' E 011°00'713.1
2017-Aug-11 08:01N 55°03' E 010°60'612.9
2017-Aug-11 07:31N 54°57' E 010°55'713.1
2017-Aug-11 07:01N 54°51' E 010°50'713.1
2017-Aug-11 06:31N 54°45' E 010°47'611.1
2017-Aug-11 06:01N 54°40' E 010°50'713.1
2017-Aug-11 05:30N 54°36' E 010°60'612.9
2017-Aug-11 05:01N 54°36' E 011°11'713.2
2017-Aug-11 04:31N 54°33' E 011°21'612.9
2017-Aug-11 04:01N 54°30' E 011°31'712.7
2017-Aug-11 03:30N 54°28' E 011°41'612.8
2017-Aug-11 03:01N 54°26' E 011°52'713.1
2017-Aug-11 02:30N 54°26' E 012°03'13 9.8
2017-Aug-11 01:09N 54°36' E 012°18'213.6
2017-Aug-11 01:00N 54°38' E 012°21'713.4
2017-Aug-11 00:30N 54°41' E 012°31'713.2
2017-Aug-11 00:00N 54°45' E 012°40'712.9
2017-Aug-10 23:27N 54°49' E 012°50'1112.8
2017-Aug-10 22:38N 54°52' E 013°08'212.9
2017-Aug-10 22:30N 54°53' E 013°10'612.8
2017-Aug-10 22:00N 54°55' E 013°21'612.7
2017-Aug-10 21:30N 54°57' E 013°31'612.8
2017-Aug-10 21:00N 54°59' E 013°42'713.4
2017-Aug-10 20:30N 55°02' E 013°53'713.6
2017-Aug-10 20:01N 55°04' E 014°04'713.4
2017-Aug-10 19:31N 55°09' E 014°11'713.4
2017-Aug-10 19:01N 55°15' E 014°18'713.7
2017-Aug-10 18:31N 55°20' E 014°26'713.9
2017-Aug-10 18:01N 55°25' E 014°34'713.7
2017-Aug-10 17:31N 55°29' E 014°43'713.8
2017-Aug-10 17:01N 55°33' E 014°54'713.6
2017-Aug-10 16:31N 55°36' E 015°04'713.5
2017-Aug-10 16:01N 55°40' E 015°15'713.4
2017-Aug-10 15:31N 55°43' E 015°25'713.1
2017-Aug-10 15:00N 55°46' E 015°35'5 9.7
2017-Aug-10 14:30N 55°49' E 015°43'713.2
2017-Aug-10 14:00N 55°52' E 015°53'713.1
2017-Aug-10 13:30N 55°55' E 016°03'713.2
2017-Aug-10 13:00N 55°59' E 016°13'713.2
2017-Aug-10 12:30N 56°02' E 016°23'713.2
2017-Aug-10 12:00N 56°05' E 016°33'713.4
2017-Aug-10 11:30N 56°09' E 016°43'14314.1
2017-Aug-10 01:24N 57°50' E 019°50'613.9
2017-Aug-10 01:00N 57°54' E 019°55'2913.6
2017-Aug-09 22:50N 58°18' E 020°28'813.5
2017-Aug-09 22:13N 58°25' E 020°37'313.5
2017-Aug-09 21:58N 58°28' E 020°41'913.6
2017-Aug-09 21:18N 58°35' E 020°51'413.7
2017-Aug-09 21:00N 58°39' E 020°55'714.4
2017-Aug-09 20:30N 58°44' E 021°03'713.1
2017-Aug-09 20:00N 58°50' E 021°10'713.8
2017-Aug-09 19:30N 58°56' E 021°17'713.9
2017-Aug-09 19:00N 59°01' E 021°25'714.0
2017-Aug-09 18:30N 59°07' E 021°34'714.3
2017-Aug-09 18:00N 59°11' E 021°44'714.4
2017-Aug-09 17:31N 59°16' E 021°55'714.4
2017-Aug-09 17:01N 59°21' E 022°06'714.4
2017-Aug-09 16:31N 59°25' E 022°16'714.3
2017-Aug-09 16:00N 59°30' E 022°27'713.6
2017-Aug-09 15:31N 59°32' E 022°40'713.9
2017-Aug-09 15:01N 59°34' E 022°53'714.6
2017-Aug-09 14:30N 59°37' E 023°07'714.8
2017-Aug-09 14:01N 59°39' E 023°21'714.7
2017-Aug-09 13:30N 59°41' E 023°35'4 7.4
2017-Aug-09 13:00N 59°42' E 023°42'713.0
2017-Aug-09 12:30N 59°43' E 023°54'713.6
2017-Aug-09 12:00N 59°45' E 024°07'713.7
2017-Aug-09 11:31N 59°47' E 024°20'713.1
2017-Aug-09 11:00N 59°48' E 024°33'713.7
2017-Aug-09 10:31N 59°49' E 024°46'713.2
2017-Aug-09 10:00N 59°51' E 024°59'713.7
2017-Aug-09 09:30N 59°52' E 025°13'713.6
2017-Aug-09 09:00N 59°54' E 025°26'713.4
2017-Aug-09 08:31N 59°55' E 025°39'713.8
2017-Aug-09 08:01N 59°56' E 025°53'4 8.0
2017-Aug-09 07:30N 59°57' E 026°01'4 9.0
2017-Aug-09 07:01N 59°58' E 026°09'612.7
2017-Aug-09 06:31N 59°60' E 026°22'612.8
2017-Aug-09 06:00N 60°01' E 026°34'612.6
2017-Aug-09 05:30N 60°01' E 026°47'612.9
2017-Aug-09 05:00N 59°60' E 026°59'612.4
2017-Aug-09 04:31N 60°02' E 027°11'612.6
2017-Aug-09 04:00N 60°05' E 027°22'613.0
2017-Aug-09 03:30N 60°08' E 027°33'612.8
2017-Aug-09 03:01N 60°12' E 027°44'612.4
2017-Aug-09 02:30N 60°11' E 027°56'612.9
2017-Aug-09 02:01N 60°09' E 028°09'612.3
2017-Aug-09 01:30N 60°07' E 028°20'612.4
2017-Aug-09 01:01N 60°03' E 028°31'612.4
2017-Aug-09 00:30N 60°03' E 028°43'612.3
2017-Aug-09 00:01N 60°03' E 028°56'612.7
2017-Aug-08 23:30N 60°02' E 029°08'612.9
2017-Aug-08 23:00N 60°02' E 029°21'5 9.8
2017-Aug-08 22:31N 60°01' E 029°31'611.2
2017-Aug-08 22:00N 59°60' E 029°42'5 9.9
2017-Aug-08 21:30N 59°57' E 029°50'510.4
2017-Aug-08 21:01N 59°55' E 029°60'4 8.7
2017-Aug-08 20:30N 59°54' E 030°08'2 4.2
2017-Aug-08 20:01N 59°53' E 030°12'0 0.2
2017-Aug-08 19:30N 59°53' E 030°12'0 0.0
2017-Aug-08 19:00N 59°53' E 030°12'0 0.2
2017-Aug-08 18:30N 59°53' E 030°12'0 0.2
2017-Aug-08 18:00N 59°53' E 030°12'0 0.0
2017-Aug-08 17:30N 59°53' E 030°12'0 0.2
2017-Aug-08 16:59N 59°53' E 030°12'0 0.2
2017-Aug-08 16:29N 59°53' E 030°12'0 0.0
2017-Aug-08 15:59N 59°53' E 030°12'0 0.0
2017-Aug-08 15:29N 59°53' E 030°12'0 0.0
2017-Aug-08 14:58N 59°53' E 030°12'0 0.0
2017-Aug-08 14:28N 59°53' E 030°12'0 0.0
2017-Aug-08 13:58N 59°53' E 030°12'0 0.2
2017-Aug-08 13:28N 59°53' E 030°12'0 0.0
2017-Aug-08 12:58N 59°53' E 030°12'0 0.2
2017-Aug-08 12:30N 59°53' E 030°12'0 0.0
2017-Aug-08 12:00N 59°53' E 030°12'0 0.0
2017-Aug-08 11:30N 59°53' E 030°12'0 0.1
2017-Aug-08 10:57N 59°53' E 030°12'0 0.0
2017-Aug-08 10:29N 59°53' E 030°12'0 0.2
2017-Aug-08 09:59N 59°53' E 030°12'0 0.0
2017-Aug-08 09:29N 59°53' E 030°12'0 0.0
2017-Aug-08 08:59N 59°53' E 030°12'0 0.2
2017-Aug-08 08:29N 59°53' E 030°12'0 0.1
2017-Aug-08 07:52N 59°53' E 030°12'0 0.2
2017-Aug-08 07:28N 59°53' E 030°12'0 0.1
2017-Aug-08 06:55N 59°53' E 030°12'0 0.2
2017-Aug-08 06:28N 59°53' E 030°12'0 0.2
2017-Aug-08 05:58N 59°53' E 030°12'0 0.2
2017-Aug-08 05:29N 59°53' E 030°12'0 0.1
2017-Aug-08 04:54N 59°53' E 030°12'0 0.0
2017-Aug-08 04:30N 59°53' E 030°12'0 0.0
2017-Aug-08 04:00N 59°53' E 030°12'0 0.0
2017-Aug-08 03:29N 59°53' E 030°12'0 0.0
2017-Aug-08 02:59N 59°53' E 030°12'0 0.0
2017-Aug-08 02:29N 59°53' E 030°12'0 0.0
2017-Aug-08 01:59N 59°53' E 030°12'0 0.0
2017-Aug-08 01:29N 59°53' E 030°12'0 0.0
2017-Aug-08 00:58N 59°53' E 030°12'0 0.0
2017-Aug-08 00:28N 59°53' E 030°12'0 0.0
2017-Aug-07 23:58N 59°53' E 030°12'0 0.0
2017-Aug-07 23:28N 59°53' E 030°12'0 0.0
2017-Aug-07 22:58N 59°53' E 030°12'0 0.0
2017-Aug-07 22:30N 59°53' E 030°12'0 0.0
2017-Aug-07 22:00N 59°53' E 030°12'0 0.0
2017-Aug-07 21:27N 59°53' E 030°12'0 0.0
2017-Aug-07 21:00N 59°53' E 030°12'0 0.0
2017-Aug-07 20:26N 59°53' E 030°12'0 0.0
2017-Aug-07 19:59N 59°53' E 030°12'0 0.0
2017-Aug-07 19:29N 59°53' E 030°12'0 0.0
2017-Aug-07 18:59N 59°53' E 030°12'0 0.0
2017-Aug-07 18:29N 59°53' E 030°12'0 0.0
2017-Aug-07 17:58N 59°53' E 030°12'0 0.0
2017-Aug-07 17:28N 59°53' E 030°12'0 0.0
2017-Aug-07 16:58N 59°53' E 030°12'0 0.0
2017-Aug-07 16:28N 59°53' E 030°12'0 0.0
2017-Aug-07 16:01N 59°53' E 030°12'0 0.0
2017-Aug-07 15:27N 59°53' E 030°12'0 0.0
2017-Aug-07 15:00N 59°53' E 030°12'0 0.0
2017-Aug-07 14:30N 59°53' E 030°12'0 0.0
2017-Aug-07 14:00N 59°53' E 030°12'0 0.0
2017-Aug-07 13:29N 59°53' E 030°12'0 0.0
2017-Aug-07 12:59N 59°53' E 030°12'0 0.1
2017-Aug-07 12:26N 59°53' E 030°12'0 0.2
2017-Aug-07 11:59N 59°53' E 030°12'0 0.0
2017-Aug-07 11:29N 59°53' E 030°12'0 0.1
2017-Aug-07 11:00N 59°53' E 030°12'0 0.9
2017-Aug-07 10:30N 59°53' E 030°11'1 2.5
2017-Aug-07 10:00N 59°54' E 030°13'0 0.1
2017-Aug-07 09:28N 59°54' E 030°14'0 0.0
2017-Aug-07 08:58N 59°54' E 030°14'0 0.1
2017-Aug-07 08:25N 59°54' E 030°14'0 0.2
2017-Aug-07 07:58N 59°54' E 030°14'0 0.2
2017-Aug-07 07:30N 59°54' E 030°14'0 0.2
2017-Aug-07 07:00N 59°54' E 030°14'0 0.0
2017-Aug-07 06:30N 59°54' E 030°14'0 0.0
2017-Aug-07 05:57N 59°54' E 030°14'0 0.0
2017-Aug-07 05:30N 59°54' E 030°14'0 0.0
2017-Aug-07 04:56N 59°54' E 030°14'0 0.2
2017-Aug-07 04:29N 59°54' E 030°14'0 0.2
2017-Aug-07 03:59N 59°54' E 030°14'0 0.0
2017-Aug-07 03:29N 59°54' E 030°14'0 0.0
2017-Aug-07 02:59N 59°54' E 030°14'0 0.0
2017-Aug-07 02:25N 59°54' E 030°14'0 0.0
2017-Aug-07 01:55N 59°54' E 030°14'0 0.0
2017-Aug-07 01:28N 59°54' E 030°14'0 0.0
2017-Aug-07 00:58N 59°54' E 030°14'0 0.0
2017-Aug-07 00:27N 59°54' E 030°14'0 0.2
2017-Aug-07 00:00N 59°54' E 030°14'0 0.2
2017-Aug-06 23:30N 59°54' E 030°14'0 0.0
2017-Aug-06 23:00N 59°54' E 030°14'0 0.2
2017-Aug-06 22:30N 59°54' E 030°14'0 0.1
2017-Aug-06 21:59N 59°54' E 030°14'0 0.0
2017-Aug-06 21:29N 59°54' E 030°14'  

Dump ship's entire track history